sensor_id;sensor_type;location;lat;lon;timestamp;pressure;altitude;pressure_sealevel;temperature;humidity
44457;BME280;30159;49.316;8.558;2024-03-22T00:00:35;101132.44;;;10.16;100.00
44457;BME280;30159;49.316;8.558;2024-03-22T00:03:01;101126.53;;;10.14;100.00
44457;BME280;30159;49.316;8.558;2024-03-22T00:05:27;101132.41;;;10.11;100.00
44457;BME280;30159;49.316;8.558;2024-03-22T00:07:53;101130.47;;;10.01;100.00
44457;BME280;30159;49.316;8.558;2024-03-22T00:10:20;101127.47;;;9.98;100.00
44457;BME280;30159;49.316;8.558;2024-03-22T00:12:45;101126.91;;;9.96;100.00
44457;BME280;30159;49.316;8.558;2024-03-22T00:15:13;101128.53;;;9.97;100.00
44457;BME280;30159;49.316;8.558;2024-03-22T00:17:39;101117.97;;;9.90;100.00
44457;BME280;30159;49.316;8.558;2024-03-22T00:20:06;101113.91;;;9.87;100.00
44457;BME280;30159;49.316;8.558;2024-03-22T00:22:32;101116.00;;;9.80;100.00
44457;BME280;30159;49.316;8.558;2024-03-22T00:24:59;101089.53;;;9.72;100.00
44457;BME280;30159;49.316;8.558;2024-03-22T00:27:24;101109.84;;;9.85;100.00
44457;BME280;30159;49.316;8.558;2024-03-22T00:29:51;101111.22;;;9.87;100.00
44457;BME280;30159;49.316;8.558;2024-03-22T00:32:18;101106.91;;;9.86;100.00
44457;BME280;30159;49.316;8.558;2024-03-22T00:34:44;101108.50;;;9.87;100.00
44457;BME280;30159;49.316;8.558;2024-03-22T00:37:10;101107.72;;;9.87;100.00
44457;BME280;30159;49.316;8.558;2024-03-22T00:39:37;101106.91;;;9.86;100.00
44457;BME280;30159;49.316;8.558;2024-03-22T00:42:03;101099.63;;;9.87;100.00
44457;BME280;30159;49.316;8.558;2024-03-22T00:44:30;101098.75;;;9.81;100.00
44457;BME280;30159;49.316;8.558;2024-03-22T00:46:55;101093.38;;;9.81;100.00
44457;BME280;30159;49.316;8.558;2024-03-22T00:49:23;101091.97;;;9.74;100.00
44457;BME280;30159;49.316;8.558;2024-03-22T00:51:49;101079.22;;;9.64;100.00
44457;BME280;30159;49.316;8.558;2024-03-22T00:54:15;101087.25;;;9.59;100.00
44457;BME280;30159;49.316;8.558;2024-03-22T00:56:41;101076.13;;;9.50;100.00
44457;BME280;30159;49.316;8.558;2024-03-22T00:59:08;101067.44;;;9.43;100.00
44457;BME280;30159;49.316;8.558;2024-03-22T01:01:33;101064.97;;;9.36;100.00
44457;BME280;30159;49.316;8.558;2024-03-22T01:04:00;101059.56;;;9.36;100.00
44457;BME280;30159;49.316;8.558;2024-03-22T01:06:27;101056.84;;;9.31;100.00
44457;BME280;30159;49.316;8.558;2024-03-22T01:08:54;101048.41;;;9.22;100.00
44457;BME280;30159;49.316;8.558;2024-03-22T01:11:19;101052.41;;;9.20;100.00
44457;BME280;30159;49.316;8.558;2024-03-22T01:13:46;101045.09;;;9.15;100.00
44457;BME280;30159;49.316;8.558;2024-03-22T01:16:12;101046.66;;;9.11;100.00
44457;BME280;30159;49.316;8.558;2024-03-22T01:18:38;101048.25;;;9.07;100.00
44457;BME280;30159;49.316;8.558;2024-03-22T01:21:04;101048.19;;;9.02;100.00
44457;BME280;30159;49.316;8.558;2024-03-22T01:23:33;101054.59;;;8.96;100.00
44457;BME280;30159;49.316;8.558;2024-03-22T01:25:58;101041.09;;;8.91;100.00
44457;BME280;30159;49.316;8.558;2024-03-22T01:28:25;101039.97;;;8.86;100.00
44457;BME280;30159;49.316;8.558;2024-03-22T01:30:51;101036.38;;;8.81;100.00
44457;BME280;30159;49.316;8.558;2024-03-22T01:33:17;101035.84;;;8.79;100.00
44457;BME280;30159;49.316;8.558;2024-03-22T01:35:43;101040.91;;;8.75;100.00
44457;BME280;30159;49.316;8.558;2024-03-22T01:38:10;101045.22;;;8.76;100.00
44457;BME280;30159;49.316;8.558;2024-03-22T01:40:37;101033.16;;;8.79;100.00
44457;BME280;30159;49.316;8.558;2024-03-22T01:43:04;101031.53;;;8.78;100.00
44457;BME280;30159;49.316;8.558;2024-03-22T01:45:32;101033.16;;;8.79;100.00
44457;BME280;30159;49.316;8.558;2024-03-22T01:48:00;101034.22;;;8.78;100.00
44457;BME280;30159;49.316;8.558;2024-03-22T01:50:26;100871.69;;;7.75;100.00
44457;BME280;30159;49.316;8.558;2024-03-22T01:52:54;101019.94;;;8.77;100.00
44457;BME280;30159;49.316;8.558;2024-03-22T01:55:20;101012.19;;;8.81;100.00
44457;BME280;30159;49.316;8.558;2024-03-22T01:57:51;101006.88;;;8.86;100.00
44457;BME280;30159;49.316;8.558;2024-03-22T02:00:18;101010.38;;;8.86;100.00
44457;BME280;30159;49.316;8.558;2024-03-22T02:02:45;100946.75;;;8.48;100.00
44457;BME280;30159;49.316;8.558;2024-03-22T02:05:11;101008.81;;;8.91;100.00
44457;BME280;30159;49.316;8.558;2024-03-22T02:07:38;101014.47;;;8.94;100.00
44457;BME280;30159;49.316;8.558;2024-03-22T02:10:05;101011.28;;;8.97;100.00
44457;BME280;30159;49.316;8.558;2024-03-22T02:12:33;101009.63;;;8.91;100.00
44457;BME280;30159;49.316;8.558;2024-03-22T02:15:00;101009.63;;;8.91;100.00
44457;BME280;30159;49.316;8.558;2024-03-22T02:17:28;101010.22;;;8.98;100.00
44457;BME280;30159;49.316;8.558;2024-03-22T02:19:53;101006.78;;;9.03;100.00
44457;BME280;30159;49.316;8.558;2024-03-22T02:22:20;100990.38;;;9.04;100.00
44457;BME280;30159;49.316;8.558;2024-03-22T02:24:47;100997.47;;;9.16;100.00
44457;BME280;30159;49.316;8.558;2024-03-22T02:27:13;101005.34;;;9.22;100.00
44457;BME280;30159;49.316;8.558;2024-03-22T02:29:39;101007.53;;;9.25;100.00
44457;BME280;30159;49.316;8.558;2024-03-22T02:32:06;100997.06;;;9.29;100.00
44457;BME280;30159;49.316;8.558;2024-03-22T02:34:32;100998.44;;;9.32;100.00
44457;BME280;30159;49.316;8.558;2024-03-22T02:36:58;101001.44;;;9.35;100.00
44457;BME280;30159;49.316;8.558;2024-03-22T02:39:24;100979.97;;;9.13;100.00
44457;BME280;30159;49.316;8.558;2024-03-22T02:41:52;101005.53;;;9.16;100.00
44457;BME280;30159;49.316;8.558;2024-03-22T02:44:18;101001.63;;;9.01;100.00
44457;BME280;30159;49.316;8.558;2024-03-22T02:46:44;101011.78;;;8.94;100.00
44457;BME280;30159;49.316;8.558;2024-03-22T02:49:10;101003.91;;;8.88;100.00
44457;BME280;30159;49.316;8.558;2024-03-22T02:51:37;100997.94;;;8.80;100.00
44457;BME280;30159;49.316;8.558;2024-03-22T02:54:02;100993.81;;;8.73;100.00
44457;BME280;30159;49.316;8.558;2024-03-22T02:56:29;100985.56;;;8.57;100.00
44457;BME280;30159;49.316;8.558;2024-03-22T02:58:56;100991.13;;;8.51;100.00
44457;BME280;30159;49.316;8.558;2024-03-22T03:01:22;100986.44;;;8.41;100.00
44457;BME280;30159;49.316;8.558;2024-03-22T03:03:48;100964.13;;;8.18;100.00
44457;BME280;30159;49.316;8.558;2024-03-22T03:06:15;100978.75;;;8.28;100.00
44457;BME280;30159;49.316;8.558;2024-03-22T03:08:42;100965.09;;;8.12;100.00
44457;BME280;30159;49.316;8.558;2024-03-22T03:11:08;100975.50;;;8.26;100.00
44457;BME280;30159;49.316;8.558;2024-03-22T03:13:34;100976.28;;;8.26;100.00
44457;BME280;30159;49.316;8.558;2024-03-22T03:16:02;100970.91;;;8.26;100.00
44457;BME280;30159;49.316;8.558;2024-03-22T03:18:28;100968.00;;;8.28;100.00
44457;BME280;30159;49.316;8.558;2024-03-22T03:20:54;100965.38;;;8.33;100.00
44457;BME280;30159;49.316;8.558;2024-03-22T03:23:20;100964.34;;;8.39;100.00
44457;BME280;30159;49.316;8.558;2024-03-22T03:25:47;100966.63;;;8.47;100.00
44457;BME280;30159;49.316;8.558;2024-03-22T03:28:13;100958.53;;;8.42;100.00
44457;BME280;30159;49.316;8.558;2024-03-22T03:30:40;100969.63;;;8.51;100.00
44457;BME280;30159;49.316;8.558;2024-03-22T03:33:07;100969.88;;;8.49;100.00
44457;BME280;30159;49.316;8.558;2024-03-22T03:35:33;100959.63;;;8.46;100.00
44457;BME280;30159;49.316;8.558;2024-03-22T03:37:59;100937.13;;;8.30;100.00
44457;BME280;30159;49.316;8.558;2024-03-22T03:40:26;100961.25;;;8.47;100.00
44457;BME280;30159;49.316;8.558;2024-03-22T03:42:52;100959.69;;;8.51;100.00
44457;BME280;30159;49.316;8.558;2024-03-22T03:45:19;100963.44;;;8.50;100.00
44457;BME280;30159;49.316;8.558;2024-03-22T03:47:45;100959.63;;;8.46;100.00
44457;BME280;30159;49.316;8.558;2024-03-22T03:50:13;100939.41;;;8.21;100.00
44457;BME280;30159;49.316;8.558;2024-03-22T03:52:38;100960.63;;;8.40;100.00
44457;BME280;30159;49.316;8.558;2024-03-22T03:55:05;100960.03;;;8.38;100.00
44457;BME280;30159;49.316;8.558;2024-03-22T03:57:31;100955.94;;;8.30;100.00
44457;BME280;30159;49.316;8.558;2024-03-22T03:59:58;100957.66;;;8.19;100.00
44457;BME280;30159;49.316;8.558;2024-03-22T04:02:23;100940.84;;;8.07;100.00
44457;BME280;30159;49.316;8.558;2024-03-22T04:04:52;100957.53;;;8.09;100.00
44457;BME280;30159;49.316;8.558;2024-03-22T04:07:19;100893.34;;;7.69;100.00
44457;BME280;30159;49.316;8.558;2024-03-22T04:09:46;100952.66;;;8.06;100.00
44457;BME280;30159;49.316;8.558;2024-03-22T04:12:12;100918.75;;;7.83;100.00
44457;BME280;30159;49.316;8.558;2024-03-22T04:14:38;100952.28;;;7.97;100.00
44457;BME280;30159;49.316;8.558;2024-03-22T04:17:04;100954.06;;;7.92;100.00
44457;BME280;30159;49.316;8.558;2024-03-22T04:19:31;100951.38;;;7.92;100.00
44457;BME280;30159;49.316;8.558;2024-03-22T04:21:56;100935.78;;;7.89;100.00
44457;BME280;30159;49.316;8.558;2024-03-22T04:24:24;100939.03;;;7.91;100.00
44457;BME280;30159;49.316;8.558;2024-03-22T04:26:50;100945.16;;;7.86;100.00
44457;BME280;30159;49.316;8.558;2024-03-22T04:29:16;100946.28;;;7.90;100.00
44457;BME280;30159;49.316;8.558;2024-03-22T04:31:42;100943.03;;;7.88;100.00
44457;BME280;30159;49.316;8.558;2024-03-22T04:34:09;100943.59;;;7.90;100.00
44457;BME280;30159;49.316;8.558;2024-03-22T04:36:35;100942.69;;;7.85;100.00
44457;BME280;30159;49.316;8.558;2024-03-22T04:39:02;100934.06;;;7.82;100.00
44457;BME280;30159;49.316;8.558;2024-03-22T04:41:30;100941.88;;;7.84;100.00
44457;BME280;30159;49.316;8.558;2024-03-22T04:43:56;100944.34;;;7.86;100.00
44457;BME280;30159;49.316;8.558;2024-03-22T04:46:22;100941.38;;;7.87;100.00
44457;BME280;30159;49.316;8.558;2024-03-22T04:48:48;100934.47;;;7.91;100.00
44457;BME280;30159;49.316;8.558;2024-03-22T04:51:14;100916.34;;;7.81;100.00
44457;BME280;30159;49.316;8.558;2024-03-22T04:53:40;100936.91;;;7.93;100.00
44457;BME280;30159;49.316;8.558;2024-03-22T04:56:07;100930.69;;;7.92;100.00
44457;BME280;30159;49.316;8.558;2024-03-22T04:58:34;100933.66;;;7.91;100.00
44457;BME280;30159;49.316;8.558;2024-03-22T05:01:00;100927.22;;;7.92;100.00
44457;BME280;30159;49.316;8.558;2024-03-22T05:03:26;100924.47;;;7.87;100.00
44457;BME280;30159;49.316;8.558;2024-03-22T05:05:53;100874.09;;;7.55;100.00
44457;BME280;30159;49.316;8.558;2024-03-22T05:08:19;100921.78;;;7.87;100.00
44457;BME280;30159;49.316;8.558;2024-03-22T05:10:45;100917.53;;;7.91;100.00
44457;BME280;30159;49.316;8.558;2024-03-22T05:13:11;100927.72;;;7.89;100.00
44457;BME280;30159;49.316;8.558;2024-03-22T05:15:39;100920.06;;;7.80;100.00
44457;BME280;30159;49.316;8.558;2024-03-22T05:18:05;100928.22;;;7.86;100.00
44457;BME280;30159;49.316;8.558;2024-03-22T05:20:31;100925.22;;;7.82;100.00
44457;BME280;30159;49.316;8.558;2024-03-22T05:22:57;100916.34;;;7.81;100.00
44457;BME280;30159;49.316;8.558;2024-03-22T05:25:24;100919.84;;;7.82;100.00
44457;BME280;30159;49.316;8.558;2024-03-22T05:27:49;100909.59;;;7.79;100.00
44457;BME280;30159;49.316;8.558;2024-03-22T05:30:16;100917.22;;;7.87;100.00
44457;BME280;30159;49.316;8.558;2024-03-22T05:32:43;100912.66;;;7.88;100.00
44457;BME280;30159;49.316;8.558;2024-03-22T05:35:09;100916.66;;;7.85;100.00
44457;BME280;30159;49.316;8.558;2024-03-22T05:37:35;100911.91;;;7.92;100.00
44457;BME280;30159;49.316;8.558;2024-03-22T05:40:02;100918.41;;;7.96;100.00
44457;BME280;30159;49.316;8.558;2024-03-22T05:42:29;100902.47;;;7.90;100.00
44457;BME280;30159;49.316;8.558;2024-03-22T05:44:56;100914.22;;;8.06;100.00
44457;BME280;30159;49.316;8.558;2024-03-22T05:47:21;100905.59;;;8.03;100.00
44457;BME280;30159;49.316;8.558;2024-03-22T05:49:49;100876.94;;;7.87;100.00
44457;BME280;30159;49.316;8.558;2024-03-22T05:52:15;100871.56;;;7.87;100.00
44457;BME280;30159;49.316;8.558;2024-03-22T05:54:42;100911.38;;;8.12;100.00
44457;BME280;30159;49.316;8.558;2024-03-22T05:57:07;100914.91;;;8.18;100.00
44457;BME280;30159;49.316;8.558;2024-03-22T05:59:34;100905.56;;;8.20;100.00
44457;BME280;30159;49.316;8.558;2024-03-22T06:02:00;100911.59;;;8.33;100.00
44457;BME280;30159;49.316;8.558;2024-03-22T06:04:27;100905.22;;;8.39;100.00
44457;BME280;30159;49.316;8.558;2024-03-22T06:06:54;100919.06;;;8.48;100.00
44457;BME280;30159;49.316;8.558;2024-03-22T06:09:21;100911.91;;;8.58;100.00
44457;BME280;30159;49.316;8.558;2024-03-22T06:11:50;100922.53;;;8.70;100.00
44457;BME280;30159;49.316;8.558;2024-03-22T06:14:17;100910.66;;;8.93;100.00
44457;BME280;30159;49.316;8.558;2024-03-22T06:16:42;100909.94;;;9.40;100.00
44457;BME280;30159;49.316;8.558;2024-03-22T06:19:09;100906.31;;;10.25;100.00
44457;BME280;30159;49.316;8.558;2024-03-22T06:21:35;100833.09;;;10.79;100.00
44457;BME280;30159;49.316;8.558;2024-03-22T06:24:03;100910.66;;;12.15;100.00
44457;BME280;30159;49.316;8.558;2024-03-22T06:26:29;100901.13;;;13.07;92.06
44457;BME280;30159;49.316;8.558;2024-03-22T06:28:56;100890.44;;;14.03;85.69
44457;BME280;30159;49.316;8.558;2024-03-22T06:31:21;100898.34;;;15.46;79.16
44457;BME280;30159;49.316;8.558;2024-03-22T06:33:48;100889.97;;;16.39;74.39
44457;BME280;30159;49.316;8.558;2024-03-22T06:36:13;100855.78;;;16.92;71.17
44457;BME280;30159;49.316;8.558;2024-03-22T06:38:40;100892.22;;;17.81;68.65
44457;BME280;30159;49.316;8.558;2024-03-22T06:41:07;100883.50;;;18.45;66.03
44457;BME280;30159;49.316;8.558;2024-03-22T06:43:34;100856.06;;;18.77;64.09
44457;BME280;30159;49.316;8.558;2024-03-22T06:45:59;100892.78;;;19.23;63.23
44457;BME280;30159;49.316;8.558;2024-03-22T06:48:26;100857.59;;;19.59;62.49
44457;BME280;30159;49.316;8.558;2024-03-22T06:50:51;100881.19;;;20.32;60.88
44457;BME280;30159;49.316;8.558;2024-03-22T06:53:18;100878.47;;;21.08;59.34
44457;BME280;30159;49.316;8.558;2024-03-22T06:55:43;100864.03;;;21.44;58.25
44457;BME280;30159;49.316;8.558;2024-03-22T06:58:12;100874.59;;;22.03;57.31
44457;BME280;30159;49.316;8.558;2024-03-22T07:00:37;100876.91;;;22.54;56.75
44457;BME280;30159;49.316;8.558;2024-03-22T07:03:05;100860.91;;;23.00;55.42
44457;BME280;30159;49.316;8.558;2024-03-22T07:05:30;100855.78;;;23.30;54.24
44457;BME280;30159;49.316;8.558;2024-03-22T07:07:57;100867.94;;;23.61;53.88
44457;BME280;30159;49.316;8.558;2024-03-22T07:10:23;100856.06;;;23.57;54.26
44457;BME280;30159;49.316;8.558;2024-03-22T07:12:53;100858.25;;;23.99;53.88
44457;BME280;30159;49.316;8.558;2024-03-22T07:15:21;100855.66;;;24.26;52.90
44457;BME280;30159;49.316;8.558;2024-03-22T07:17:47;100825.63;;;24.40;52.61
44457;BME280;30159;49.316;8.558;2024-03-22T07:20:13;100843.44;;;25.05;52.19
44457;BME280;30159;49.316;8.558;2024-03-22T07:22:40;100847.59;;;25.37;51.74
44457;BME280;30159;49.316;8.558;2024-03-22T07:25:06;100821.00;;;24.44;52.47
44457;BME280;30159;49.316;8.558;2024-03-22T07:27:34;100835.50;;;25.46;51.14
44457;BME280;30159;49.316;8.558;2024-03-22T07:30:00;100828.63;;;26.46;49.61
44457;BME280;30159;49.316;8.558;2024-03-22T07:32:28;100828.78;;;26.26;50.51
44457;BME280;30159;49.316;8.558;2024-03-22T07:34:54;100826.34;;;26.89;50.23
44457;BME280;30159;49.316;8.558;2024-03-22T07:37:21;100827.94;;;26.22;51.09
44457;BME280;30159;49.316;8.558;2024-03-22T07:39:47;100826.66;;;23.77;53.82
44457;BME280;30159;49.316;8.558;2024-03-22T07:42:14;100805.88;;;22.72;56.55
44457;BME280;30159;49.316;8.558;2024-03-22T07:44:40;100813.72;;;21.77;59.78
44457;BME280;30159;49.316;8.558;2024-03-22T07:47:06;100824.16;;;21.59;60.00
44457;BME280;30159;49.316;8.558;2024-03-22T07:49:33;100825.13;;;21.30;60.43
44457;BME280;30159;49.316;8.558;2024-03-22T07:52:00;100803.81;;;20.56;62.01
44457;BME280;30159;49.316;8.558;2024-03-22T07:54:26;100780.97;;;20.10;62.56
44457;BME280;30159;49.316;8.558;2024-03-22T07:56:52;100828.06;;;19.74;63.35
44457;BME280;30159;49.316;8.558;2024-03-22T07:59:18;100817.75;;;19.79;63.78
44457;BME280;30159;49.316;8.558;2024-03-22T08:01:45;100818.09;;;19.40;64.80
44457;BME280;30159;49.316;8.558;2024-03-22T08:04:12;100813.81;;;19.21;64.62
44457;BME280;30159;49.316;8.558;2024-03-22T08:06:40;100679.97;;;18.39;65.66
44457;BME280;30159;49.316;8.558;2024-03-22T08:09:05;100814.53;;;18.92;66.69
44457;BME280;30159;49.316;8.558;2024-03-22T08:11:33;100813.28;;;18.20;68.55
44457;BME280;30159;49.316;8.558;2024-03-22T08:13:58;100810.88;;;18.62;68.65
44457;BME280;30159;49.316;8.558;2024-03-22T08:16:29;100803.44;;;18.97;67.64
44457;BME280;30159;49.316;8.558;2024-03-22T08:18:54;100672.63;;;18.05;68.60
44457;BME280;30159;49.316;8.558;2024-03-22T08:21:22;100809.72;;;19.36;66.65
44457;BME280;30159;49.316;8.558;2024-03-22T08:23:49;100793.22;;;19.24;67.40
44457;BME280;30159;49.316;8.558;2024-03-22T08:26:16;100781.31;;;19.58;66.31
44457;BME280;30159;49.316;8.558;2024-03-22T08:28:41;100787.84;;;19.66;65.13
44457;BME280;30159;49.316;8.558;2024-03-22T08:31:08;100774.88;;;19.54;66.17
44457;BME280;30159;49.316;8.558;2024-03-22T08:33:33;100791.78;;;19.86;65.95
44457;BME280;30159;49.316;8.558;2024-03-22T08:36:00;100791.59;;;19.61;65.06
44457;BME280;30159;49.316;8.558;2024-03-22T08:38:26;100788.56;;;19.54;65.38
44457;BME280;30159;49.316;8.558;2024-03-22T08:40:54;100771.31;;;19.32;65.34
44457;BME280;30159;49.316;8.558;2024-03-22T08:43:20;100770.06;;;19.21;66.93
44457;BME280;30159;49.316;8.558;2024-03-22T08:45:48;100790.84;;;19.52;66.85
44457;BME280;30159;49.316;8.558;2024-03-22T08:48:13;100789.91;;;19.39;65.40
44457;BME280;30159;49.316;8.558;2024-03-22T08:50:42;100787.94;;;19.19;66.90
44457;BME280;30159;49.316;8.558;2024-03-22T08:53:07;100778.34;;;18.95;67.46
44457;BME280;30159;49.316;8.558;2024-03-22T08:55:34;100776.09;;;18.97;68.74
44457;BME280;30159;49.316;8.558;2024-03-22T08:58:01;100777.03;;;19.01;69.54
44457;BME280;30159;49.316;8.558;2024-03-22T09:00:28;100777.16;;;19.13;68.79
44457;BME280;30159;49.316;8.558;2024-03-22T09:02:53;100765.44;;;19.04;69.37
44457;BME280;30159;49.316;8.558;2024-03-22T09:05:20;100753.59;;;18.91;68.41
44457;BME280;30159;49.316;8.558;2024-03-22T09:07:45;100761.41;;;19.10;66.77
44457;BME280;30159;49.316;8.558;2024-03-22T09:10:14;100756.94;;;18.97;66.77
44457;BME280;30159;49.316;8.558;2024-03-22T09:12:39;100762.41;;;18.97;67.87
44457;BME280;30159;49.316;8.558;2024-03-22T09:15:08;100749.69;;;19.10;68.12
44457;BME280;30159;49.316;8.558;2024-03-22T09:17:34;100764.16;;;19.10;66.34
44457;BME280;30159;49.316;8.558;2024-03-22T09:20:00;100720.47;;;18.93;67.33
44457;BME280;30159;49.316;8.558;2024-03-22T09:22:26;100748.03;;;19.47;67.13
44457;BME280;30159;49.316;8.558;2024-03-22T09:24:53;100745.06;;;19.31;66.73
44457;BME280;30159;49.316;8.558;2024-03-22T09:27:19;100746.50;;;18.99;67.83
44457;BME280;30159;49.316;8.558;2024-03-22T09:29:45;100727.28;;;19.16;66.46
44457;BME280;30159;49.316;8.558;2024-03-22T09:32:12;100731.72;;;19.30;66.90
44457;BME280;30159;49.316;8.558;2024-03-22T09:34:39;100726.78;;;19.23;67.17
44457;BME280;30159;49.316;8.558;2024-03-22T09:37:05;100728.25;;;19.42;66.55
44457;BME280;30159;49.316;8.558;2024-03-22T09:39:32;100726.44;;;19.54;66.18
44457;BME280;30159;49.316;8.558;2024-03-22T09:41:58;100716.25;;;19.34;67.29
44457;BME280;30159;49.316;8.558;2024-03-22T09:44:27;100689.31;;;19.15;66.83
44457;BME280;30159;49.316;8.558;2024-03-22T09:46:53;100715.72;;;19.41;66.90
44457;BME280;30159;49.316;8.558;2024-03-22T09:49:21;100705.72;;;19.45;65.98
44457;BME280;30159;49.316;8.558;2024-03-22T09:51:48;100702.28;;;19.56;66.97
44457;BME280;30159;49.316;8.558;2024-03-22T09:54:17;100706.94;;;19.35;65.59
44457;BME280;30159;49.316;8.558;2024-03-22T09:56:43;100678.75;;;19.34;64.54
44457;BME280;30159;49.316;8.558;2024-03-22T09:59:11;100705.84;;;19.48;65.84
44457;BME280;30159;49.316;8.558;2024-03-22T10:01:38;100705.56;;;20.13;66.20
44457;BME280;30159;49.316;8.558;2024-03-22T10:04:06;100696.00;;;20.19;62.96
44457;BME280;30159;49.316;8.558;2024-03-22T10:06:33;100687.56;;;20.24;64.40
44457;BME280;30159;49.316;8.558;2024-03-22T10:09:00;100695.78;;;19.70;64.27
44457;BME280;30159;49.316;8.558;2024-03-22T10:11:26;100699.75;;;19.51;65.49
44457;BME280;30159;49.316;8.558;2024-03-22T10:13:53;100691.50;;;19.30;65.36
44457;BME280;30159;49.316;8.558;2024-03-22T10:16:20;100695.84;;;19.31;65.89
44457;BME280;30159;49.316;8.558;2024-03-22T10:18:47;100682.94;;;19.83;65.16
44457;BME280;30159;49.316;8.558;2024-03-22T10:21:17;100678.28;;;20.50;64.54
44457;BME280;30159;49.316;8.558;2024-03-22T10:23:46;100676.50;;;20.78;64.01
44457;BME280;30159;49.316;8.558;2024-03-22T10:26:13;100650.00;;;20.25;63.87
44457;BME280;30159;49.316;8.558;2024-03-22T10:28:44;100604.53;;;19.99;64.00
44457;BME280;30159;49.316;8.558;2024-03-22T10:31:11;100669.34;;;20.40;63.91
44457;BME280;30159;49.316;8.558;2024-03-22T10:33:38;100672.22;;;20.11;64.96
44457;BME280;30159;49.316;8.558;2024-03-22T10:36:04;100645.53;;;19.66;65.79
44457;BME280;30159;49.316;8.558;2024-03-22T10:38:32;100656.19;;;20.21;64.54
44457;BME280;30159;49.316;8.558;2024-03-22T10:41:00;100611.44;;;19.84;64.96
44457;BME280;30159;49.316;8.558;2024-03-22T10:43:27;100640.03;;;20.08;65.10
44457;BME280;30159;49.316;8.558;2024-03-22T10:46:01;100652.00;;;20.03;65.01
44457;BME280;30159;49.316;8.558;2024-03-22T10:48:31;100627.88;;;19.84;65.96
44457;BME280;30159;49.316;8.558;2024-03-22T10:50:59;100639.19;;;20.28;65.36
44457;BME280;30159;49.316;8.558;2024-03-22T10:53:26;100640.25;;;20.48;64.74
44457;BME280;30159;49.316;8.558;2024-03-22T10:55:54;100627.50;;;20.77;65.10
44457;BME280;30159;49.316;8.558;2024-03-22T10:58:26;100627.84;;;20.63;63.99
44457;BME280;30159;49.316;8.558;2024-03-22T11:00:52;100627.03;;;20.99;63.98
44457;BME280;30159;49.316;8.558;2024-03-22T11:03:20;100623.94;;;21.13;64.02
44457;BME280;30159;49.316;8.558;2024-03-22T11:05:46;100615.25;;;21.11;64.04
44457;BME280;30159;49.316;8.558;2024-03-22T11:08:12;100614.75;;;21.46;63.52
44457;BME280;30159;49.316;8.558;2024-03-22T11:10:38;100608.97;;;21.11;62.00
44457;BME280;30159;49.316;8.558;2024-03-22T11:13:06;100604.22;;;21.36;62.35
44457;BME280;30159;49.316;8.558;2024-03-22T11:15:34;100603.94;;;21.13;61.92
44457;BME280;30159;49.316;8.558;2024-03-22T11:18:01;100599.28;;;21.01;63.31
44457;BME280;30159;49.316;8.558;2024-03-22T11:20:26;100589.94;;;21.30;61.65
44457;BME280;30159;49.316;8.558;2024-03-22T11:22:54;100575.63;;;21.37;61.35
44457;BME280;30159;49.316;8.558;2024-03-22T11:25:19;100574.88;;;21.24;61.86
44457;BME280;30159;49.316;8.558;2024-03-22T11:27:46;100561.31;;;21.15;60.21
44457;BME280;30159;49.316;8.558;2024-03-22T11:30:12;100431.44;;;20.18;61.02
44457;BME280;30159;49.316;8.558;2024-03-22T11:32:41;100555.66;;;20.71;61.16
44457;BME280;30159;49.316;8.558;2024-03-22T11:35:09;100562.94;;;20.92;60.86
44457;BME280;30159;49.316;8.558;2024-03-22T11:37:36;100535.00;;;20.61;61.71
44457;BME280;30159;49.316;8.558;2024-03-22T11:40:02;100548.88;;;21.05;62.26
44457;BME280;30159;49.316;8.558;2024-03-22T11:42:32;100549.66;;;21.46;60.99
44457;BME280;30159;49.316;8.558;2024-03-22T11:44:58;100549.47;;;20.87;61.62
44457;BME280;30159;49.316;8.558;2024-03-22T11:47:25;100511.56;;;20.76;62.12
44457;BME280;30159;49.316;8.558;2024-03-22T11:49:53;100539.91;;;21.21;61.36
44457;BME280;30159;49.316;8.558;2024-03-22T11:52:24;100537.47;;;21.32;61.26
44457;BME280;30159;49.316;8.558;2024-03-22T11:54:50;100526.66;;;20.58;62.46
44457;BME280;30159;49.316;8.558;2024-03-22T11:57:17;100530.50;;;20.32;62.68
44457;BME280;30159;49.316;8.558;2024-03-22T11:59:43;100522.31;;;20.57;62.97
44457;BME280;30159;49.316;8.558;2024-03-22T12:02:10;100521.19;;;21.11;61.87
44457;BME280;30159;49.316;8.558;2024-03-22T12:04:36;100518.19;;;21.16;61.88
44457;BME280;30159;49.316;8.558;2024-03-22T12:07:10;100507.63;;;21.02;61.75
44457;BME280;30159;49.316;8.558;2024-03-22T12:09:36;100507.78;;;20.81;61.62
44457;BME280;30159;49.316;8.558;2024-03-22T12:12:04;100496.38;;;20.67;62.46
44457;BME280;30159;49.316;8.558;2024-03-22T12:14:30;100501.88;;;21.07;61.99
44457;BME280;30159;49.316;8.558;2024-03-22T12:16:56;100502.31;;;21.09;62.56
44457;BME280;30159;49.316;8.558;2024-03-22T12:19:22;100498.47;;;21.38;61.63
44457;BME280;30159;49.316;8.558;2024-03-22T12:21:49;100479.19;;;21.22;59.75
44457;BME280;30159;49.316;8.558;2024-03-22T12:24:16;100470.72;;;21.27;59.98
44457;BME280;30159;49.316;8.558;2024-03-22T12:26:42;100483.84;;;21.34;59.31
44457;BME280;30159;49.316;8.558;2024-03-22T12:29:08;100479.13;;;21.47;59.58
44457;BME280;30159;49.316;8.558;2024-03-22T12:31:37;100482.56;;;21.44;60.10
44457;BME280;30159;49.316;8.558;2024-03-22T12:34:03;100458.34;;;21.62;58.85
44457;BME280;30159;49.316;8.558;2024-03-22T12:36:29;100468.53;;;21.61;59.76
44457;BME280;30159;49.316;8.558;2024-03-22T12:38:55;100442.56;;;21.43;59.21
44457;BME280;30159;49.316;8.558;2024-03-22T12:41:23;100444.09;;;21.56;59.93
44457;BME280;30159;49.316;8.558;2024-03-22T12:43:49;100444.19;;;21.92;58.67
44457;BME280;30159;49.316;8.558;2024-03-22T12:46:15;100451.50;;;22.19;57.77